Kirkwood, Delaware
Current Conditions -  °F | °C
As of 1:51 PM on Tuesday 27 Jan 2015 (Local Time) from KILG Reporting Station
Clear Clear  
Wind Chill: 23°   Ceiling: Unl
Heat Index: 34°   Visibility: 10mi
Dew Point: 18°   Wind: 20mph
Humidity: 52%   Direction: 330°NNW
Pressure: 29.73"   Gusts: 28mph
Location:  39.57°N, 75.7°W
Report Text: KILG 271851Z 33017G24KT 10SM CLR 01/M08 A2973 RMK AO2 SLP068 T00111078
Loading
Personal Weather Stations






























Interactive Weather Map New forecast layout! Learn more

10-Day Weather Forecast

Advertisements
Track Severe Weather on mobile